Terminal Aerodrome Forecast
Issued by NWS

Home | Current Version | Previous Version | Text Only | Print | Product List | Glossary On
Versions: 1 2 3 4 5 6 7 8 9 10 11 12 13 14 15 16
000
FTUS41 KBTV 220906 AAA
TAFRUT
TAF AMD
KRUT 220906Z 2209/2306 VRB03KT P6SM OVC050
      TEMPO 2209/2212 3SM BR OVC020
     FM221200 00000KT P6SM OVC020
     FM221700 10005KT P6SM VCSH OVC020
     FM222100 12010KT P6SM -RA OVC020
     FM222300 13012KT 4SM -RA BR OVC015
     FM230400 14013G20KT P6SM VCSH OVC025=

USA.gov is the U.S. government's official web portal to all federal, state and local government web resources and services.